sensor_id;sensor_type;location;lat;lon;timestamp;temperature;humidity
16158;DHT22;8184;60.256;18.694;2023-07-24T00:00:25;14.60;99.90
16158;DHT22;8184;60.256;18.694;2023-07-24T00:02:54;14.70;99.90
16158;DHT22;8184;60.256;18.694;2023-07-24T00:05:23;14.60;99.90
16158;DHT22;8184;60.256;18.694;2023-07-24T00:07:53;14.60;99.90
16158;DHT22;8184;60.256;18.694;2023-07-24T00:10:21;14.60;99.90
16158;DHT22;8184;60.256;18.694;2023-07-24T00:12:49;14.70;99.90
16158;DHT22;8184;60.256;18.694;2023-07-24T00:15:18;14.60;99.90
16158;DHT22;8184;60.256;18.694;2023-07-24T00:17:49;14.60;99.90
16158;DHT22;8184;60.256;18.694;2023-07-24T00:20:20;14.50;99.90
16158;DHT22;8184;60.256;18.694;2023-07-24T00:22:52;14.50;99.90
16158;DHT22;8184;60.256;18.694;2023-07-24T00:25:21;14.60;99.90
16158;DHT22;8184;60.256;18.694;2023-07-24T00:27:50;14.50;99.90
16158;DHT22;8184;60.256;18.694;2023-07-24T00:30:21;14.60;99.90
16158;DHT22;8184;60.256;18.694;2023-07-24T00:32:49;14.70;99.90
16158;DHT22;8184;60.256;18.694;2023-07-24T00:35:19;14.50;99.90
16158;DHT22;8184;60.256;18.694;2023-07-24T00:37:47;14.50;99.90
16158;DHT22;8184;60.256;18.694;2023-07-24T00:40:18;14.60;99.90
16158;DHT22;8184;60.256;18.694;2023-07-24T00:42:47;14.50;99.90
16158;DHT22;8184;60.256;18.694;2023-07-24T00:45:16;14.50;99.90
16158;DHT22;8184;60.256;18.694;2023-07-24T00:47:44;14.50;99.90
16158;DHT22;8184;60.256;18.694;2023-07-24T00:50:12;14.50;99.90
16158;DHT22;8184;60.256;18.694;2023-07-24T00:52:42;14.50;99.90
16158;DHT22;8184;60.256;18.694;2023-07-24T00:55:10;14.50;99.90
16158;DHT22;8184;60.256;18.694;2023-07-24T00:57:40;14.40;99.90
16158;DHT22;8184;60.256;18.694;2023-07-24T01:00:10;14.40;99.90
16158;DHT22;8184;60.256;18.694;2023-07-24T01:02:38;14.40;99.90
16158;DHT22;8184;60.256;18.694;2023-07-24T01:05:06;14.40;99.90
16158;DHT22;8184;60.256;18.694;2023-07-24T01:07:35;14.10;99.90
16158;DHT22;8184;60.256;18.694;2023-07-24T01:10:08;14.20;99.90
16158;DHT22;8184;60.256;18.694;2023-07-24T01:12:36;14.40;99.90
16158;DHT22;8184;60.256;18.694;2023-07-24T01:15:08;14.30;99.90
16158;DHT22;8184;60.256;18.694;2023-07-24T01:17:39;14.20;99.90
16158;DHT22;8184;60.256;18.694;2023-07-24T01:20:09;14.20;99.90
16158;DHT22;8184;60.256;18.694;2023-07-24T01:22:39;14.20;99.90
16158;DHT22;8184;60.256;18.694;2023-07-24T01:25:14;14.20;99.90
16158;DHT22;8184;60.256;18.694;2023-07-24T01:27:47;14.30;99.90
16158;DHT22;8184;60.256;18.694;2023-07-24T01:30:17;14.30;99.90
16158;DHT22;8184;60.256;18.694;2023-07-24T01:32:48;15.50;99.90
16158;DHT22;8184;60.256;18.694;2023-07-24T01:35:17;14.30;99.90
16158;DHT22;8184;60.256;18.694;2023-07-24T01:37:47;14.30;99.90
16158;DHT22;8184;60.256;18.694;2023-07-24T01:40:16;14.40;99.90
16158;DHT22;8184;60.256;18.694;2023-07-24T01:42:44;14.30;99.90
16158;DHT22;8184;60.256;18.694;2023-07-24T01:45:14;14.20;99.90
16158;DHT22;8184;60.256;18.694;2023-07-24T01:47:42;14.30;99.90
16158;DHT22;8184;60.256;18.694;2023-07-24T01:50:10;14.20;99.90
16158;DHT22;8184;60.256;18.694;2023-07-24T01:52:38;14.20;99.90
16158;DHT22;8184;60.256;18.694;2023-07-24T01:55:10;14.10;99.90
16158;DHT22;8184;60.256;18.694;2023-07-24T01:57:38;14.00;99.90
16158;DHT22;8184;60.256;18.694;2023-07-24T02:00:07;14.00;99.90
16158;DHT22;8184;60.256;18.694;2023-07-24T02:02:37;14.00;99.90
16158;DHT22;8184;60.256;18.694;2023-07-24T02:05:05;14.00;99.90
16158;DHT22;8184;60.256;18.694;2023-07-24T02:07:33;13.90;99.90
16158;DHT22;8184;60.256;18.694;2023-07-24T02:10:05;13.90;99.90
16158;DHT22;8184;60.256;18.694;2023-07-24T02:12:33;13.80;99.90
16158;DHT22;8184;60.256;18.694;2023-07-24T02:15:01;13.80;99.90
16158;DHT22;8184;60.256;18.694;2023-07-24T02:17:29;13.90;99.90
16158;DHT22;8184;60.256;18.694;2023-07-24T02:19:59;13.90;99.90
16158;DHT22;8184;60.256;18.694;2023-07-24T02:22:27;13.90;99.90
16158;DHT22;8184;60.256;18.694;2023-07-24T02:24:56;13.90;99.90
16158;DHT22;8184;60.256;18.694;2023-07-24T02:27:24;13.80;99.90
16158;DHT22;8184;60.256;18.694;2023-07-24T02:29:53;13.80;99.90
16158;DHT22;8184;60.256;18.694;2023-07-24T02:32:21;13.80;99.90
16158;DHT22;8184;60.256;18.694;2023-07-24T02:34:49;13.80;99.90
16158;DHT22;8184;60.256;18.694;2023-07-24T02:37:19;13.80;99.90
16158;DHT22;8184;60.256;18.694;2023-07-24T02:39:47;13.80;99.90
16158;DHT22;8184;60.256;18.694;2023-07-24T02:42:16;13.80;99.90
16158;DHT22;8184;60.256;18.694;2023-07-24T02:44:44;13.70;99.90
16158;DHT22;8184;60.256;18.694;2023-07-24T02:47:12;13.80;99.90
16158;DHT22;8184;60.256;18.694;2023-07-24T02:49:40;13.80;99.90
16158;DHT22;8184;60.256;18.694;2023-07-24T02:52:08;13.90;99.90
16158;DHT22;8184;60.256;18.694;2023-07-24T02:54:38;13.90;99.90
16158;DHT22;8184;60.256;18.694;2023-07-24T02:57:06;13.90;99.90
16158;DHT22;8184;60.256;18.694;2023-07-24T02:59:34;13.80;99.90
16158;DHT22;8184;60.256;18.694;2023-07-24T03:02:02;13.80;99.90
16158;DHT22;8184;60.256;18.694;2023-07-24T03:04:31;13.80;99.90
16158;DHT22;8184;60.256;18.694;2023-07-24T03:06:59;13.80;99.90
16158;DHT22;8184;60.256;18.694;2023-07-24T03:09:27;13.80;99.90
16158;DHT22;8184;60.256;18.694;2023-07-24T03:11:57;13.80;99.90
16158;DHT22;8184;60.256;18.694;2023-07-24T03:14:25;13.90;99.90
16158;DHT22;8184;60.256;18.694;2023-07-24T03:16:53;14.00;99.90
16158;DHT22;8184;60.256;18.694;2023-07-24T03:19:21;13.90;99.90
16158;DHT22;8184;60.256;18.694;2023-07-24T03:21:49;13.90;99.90
16158;DHT22;8184;60.256;18.694;2023-07-24T03:24:17;13.90;99.90
16158;DHT22;8184;60.256;18.694;2023-07-24T03:26:46;14.20;99.90
16158;DHT22;8184;60.256;18.694;2023-07-24T03:29:15;14.50;99.90
16158;DHT22;8184;60.256;18.694;2023-07-24T03:31:43;14.80;99.90
16158;DHT22;8184;60.256;18.694;2023-07-24T03:34:12;15.20;99.90
16158;DHT22;8184;60.256;18.694;2023-07-24T03:36:40;15.30;99.90
16158;DHT22;8184;60.256;18.694;2023-07-24T03:39:12;15.40;99.90
16158;DHT22;8184;60.256;18.694;2023-07-24T03:41:41;15.40;99.90
16158;DHT22;8184;60.256;18.694;2023-07-24T03:44:09;15.60;99.90
16158;DHT22;8184;60.256;18.694;2023-07-24T03:46:39;15.70;99.90
16158;DHT22;8184;60.256;18.694;2023-07-24T03:49:07;15.70;99.90
16158;DHT22;8184;60.256;18.694;2023-07-24T03:51:35;15.70;99.90
16158;DHT22;8184;60.256;18.694;2023-07-24T03:54:03;15.70;99.90
16158;DHT22;8184;60.256;18.694;2023-07-24T03:56:31;15.90;99.90
16158;DHT22;8184;60.256;18.694;2023-07-24T03:59:00;16.20;99.90
16158;DHT22;8184;60.256;18.694;2023-07-24T04:01:28;16.50;99.90
16158;DHT22;8184;60.256;18.694;2023-07-24T04:03:58;16.60;99.90
16158;DHT22;8184;60.256;18.694;2023-07-24T04:06:26;16.50;99.90
16158;DHT22;8184;60.256;18.694;2023-07-24T04:08:57;16.50;99.90
16158;DHT22;8184;60.256;18.694;2023-07-24T04:11:25;16.60;99.90
16158;DHT22;8184;60.256;18.694;2023-07-24T04:13:53;16.80;99.90
16158;DHT22;8184;60.256;18.694;2023-07-24T04:16:24;17.10;99.90
16158;DHT22;8184;60.256;18.694;2023-07-24T04:18:55;17.20;99.90
16158;DHT22;8184;60.256;18.694;2023-07-24T04:21:24;17.30;99.90
16158;DHT22;8184;60.256;18.694;2023-07-24T04:23:53;17.60;99.90
16158;DHT22;8184;60.256;18.694;2023-07-24T04:26:21;17.90;99.90
16158;DHT22;8184;60.256;18.694;2023-07-24T04:28:49;18.10;99.90
16158;DHT22;8184;60.256;18.694;2023-07-24T04:31:17;18.20;99.90
16158;DHT22;8184;60.256;18.694;2023-07-24T04:33:48;18.10;99.90
16158;DHT22;8184;60.256;18.694;2023-07-24T04:36:16;18.10;99.90
16158;DHT22;8184;60.256;18.694;2023-07-24T04:38:46;18.00;99.90
16158;DHT22;8184;60.256;18.694;2023-07-24T04:41:16;18.10;99.90
16158;DHT22;8184;60.256;18.694;2023-07-24T04:43:44;18.10;99.90
16158;DHT22;8184;60.256;18.694;2023-07-24T04:46:12;18.30;99.90
16158;DHT22;8184;60.256;18.694;2023-07-24T04:48:41;18.10;99.90
16158;DHT22;8184;60.256;18.694;2023-07-24T04:51:09;18.60;99.90
16158;DHT22;8184;60.256;18.694;2023-07-24T04:53:37;18.70;99.90
16158;DHT22;8184;60.256;18.694;2023-07-24T04:56:07;18.50;99.90
16158;DHT22;8184;60.256;18.694;2023-07-24T04:58:35;18.80;99.90
16158;DHT22;8184;60.256;18.694;2023-07-24T05:01:03;18.60;99.90
16158;DHT22;8184;60.256;18.694;2023-07-24T05:03:32;18.90;99.90
16158;DHT22;8184;60.256;18.694;2023-07-24T05:06:01;19.10;99.90
16158;DHT22;8184;60.256;18.694;2023-07-24T05:08:29;19.00;99.90
16158;DHT22;8184;60.256;18.694;2023-07-24T05:11:00;19.20;99.90
16158;DHT22;8184;60.256;18.694;2023-07-24T05:13:31;20.20;99.90
16158;DHT22;8184;60.256;18.694;2023-07-24T05:15:59;19.10;99.90
16158;DHT22;8184;60.256;18.694;2023-07-24T05:18:27;19.00;99.90
16158;DHT22;8184;60.256;18.694;2023-07-24T05:20:56;19.00;99.90
16158;DHT22;8184;60.256;18.694;2023-07-24T05:23:25;19.20;99.90
16158;DHT22;8184;60.256;18.694;2023-07-24T05:25:56;19.20;99.90
16158;DHT22;8184;60.256;18.694;2023-07-24T05:28:25;19.30;99.90
16158;DHT22;8184;60.256;18.694;2023-07-24T05:30:55;19.30;99.90
16158;DHT22;8184;60.256;18.694;2023-07-24T05:33:23;19.60;99.90
16158;DHT22;8184;60.256;18.694;2023-07-24T05:35:51;19.60;99.90
16158;DHT22;8184;60.256;18.694;2023-07-24T05:38:19;18.80;99.90
16158;DHT22;8184;60.256;18.694;2023-07-24T05:40:53;19.10;99.90
16158;DHT22;8184;60.256;18.694;2023-07-24T05:43:24;19.20;99.90
16158;DHT22;8184;60.256;18.694;2023-07-24T05:45:55;19.40;99.90
16158;DHT22;8184;60.256;18.694;2023-07-24T05:48:24;19.40;99.90
16158;DHT22;8184;60.256;18.694;2023-07-24T05:50:52;19.60;99.90
16158;DHT22;8184;60.256;18.694;2023-07-24T05:53:20;19.80;99.90
16158;DHT22;8184;60.256;18.694;2023-07-24T05:55:55;19.90;99.90
16158;DHT22;8184;60.256;18.694;2023-07-24T05:58:23;19.50;99.90
16158;DHT22;8184;60.256;18.694;2023-07-24T06:00:51;19.80;99.90
16158;DHT22;8184;60.256;18.694;2023-07-24T06:03:21;19.90;99.90
16158;DHT22;8184;60.256;18.694;2023-07-24T06:05:52;19.20;99.90
16158;DHT22;8184;60.256;18.694;2023-07-24T06:08:21;19.80;99.90
16158;DHT22;8184;60.256;18.694;2023-07-24T06:10:49;20.00;99.90
16158;DHT22;8184;60.256;18.694;2023-07-24T06:13:18;20.10;99.90
16158;DHT22;8184;60.256;18.694;2023-07-24T06:15:46;20.30;99.90
16158;DHT22;8184;60.256;18.694;2023-07-24T06:18:15;20.50;99.90
16158;DHT22;8184;60.256;18.694;2023-07-24T06:20:45;20.70;99.90
16158;DHT22;8184;60.256;18.694;2023-07-24T06:23:13;20.90;99.90
16158;DHT22;8184;60.256;18.694;2023-07-24T06:25:41;20.90;99.90
16158;DHT22;8184;60.256;18.694;2023-07-24T06:28:10;21.10;99.90
16158;DHT22;8184;60.256;18.694;2023-07-24T06:30:41;21.10;99.90
16158;DHT22;8184;60.256;18.694;2023-07-24T06:33:10;21.20;99.90
16158;DHT22;8184;60.256;18.694;2023-07-24T06:35:38;21.00;99.90
16158;DHT22;8184;60.256;18.694;2023-07-24T06:38:07;21.00;99.90
16158;DHT22;8184;60.256;18.694;2023-07-24T06:40:36;21.20;99.90
16158;DHT22;8184;60.256;18.694;2023-07-24T06:43:07;21.40;99.90
16158;DHT22;8184;60.256;18.694;2023-07-24T06:45:35;21.40;99.90
16158;DHT22;8184;60.256;18.694;2023-07-24T06:48:03;21.60;99.90
16158;DHT22;8184;60.256;18.694;2023-07-24T06:50:32;21.50;99.90
16158;DHT22;8184;60.256;18.694;2023-07-24T06:53:00;21.50;99.90
16158;DHT22;8184;60.256;18.694;2023-07-24T06:55:29;21.50;99.90
16158;DHT22;8184;60.256;18.694;2023-07-24T06:57:58;21.00;99.90
16158;DHT22;8184;60.256;18.694;2023-07-24T07:00:28;20.80;99.90
16158;DHT22;8184;60.256;18.694;2023-07-24T07:03:05;21.20;99.90
16158;DHT22;8184;60.256;18.694;2023-07-24T07:05:33;21.50;99.90
16158;DHT22;8184;60.256;18.694;2023-07-24T07:08:02;21.60;99.90
16158;DHT22;8184;60.256;18.694;2023-07-24T07:10:31;21.60;99.90
16158;DHT22;8184;60.256;18.694;2023-07-24T07:13:00;21.80;99.90
16158;DHT22;8184;60.256;18.694;2023-07-24T07:15:28;21.80;99.90
16158;DHT22;8184;60.256;18.694;2023-07-24T07:17:58;22.00;99.90
16158;DHT22;8184;60.256;18.694;2023-07-24T07:20:27;22.00;99.90
16158;DHT22;8184;60.256;18.694;2023-07-24T07:22:58;21.20;99.90
16158;DHT22;8184;60.256;18.694;2023-07-24T07:25:27;21.70;99.90
16158;DHT22;8184;60.256;18.694;2023-07-24T07:27:56;21.70;99.90
16158;DHT22;8184;60.256;18.694;2023-07-24T07:30:27;21.70;99.90
16158;DHT22;8184;60.256;18.694;2023-07-24T07:32:55;21.30;99.90
16158;DHT22;8184;60.256;18.694;2023-07-24T07:35:25;21.10;99.90
16158;DHT22;8184;60.256;18.694;2023-07-24T07:37:55;21.10;99.90
16158;DHT22;8184;60.256;18.694;2023-07-24T07:40:23;21.50;99.90
16158;DHT22;8184;60.256;18.694;2023-07-24T07:42:54;21.10;99.90
16158;DHT22;8184;60.256;18.694;2023-07-24T07:45:38;21.60;99.90
16158;DHT22;8184;60.256;18.694;2023-07-24T07:48:09;21.20;99.90
16158;DHT22;8184;60.256;18.694;2023-07-24T07:50:43;20.90;99.90
16158;DHT22;8184;60.256;18.694;2023-07-24T07:53:11;21.20;99.90
16158;DHT22;8184;60.256;18.694;2023-07-24T07:55:43;21.30;99.90
16158;DHT22;8184;60.256;18.694;2023-07-24T07:58:11;20.90;99.90
16158;DHT22;8184;60.256;18.694;2023-07-24T08:00:41;20.50;99.90
16158;DHT22;8184;60.256;18.694;2023-07-24T08:03:09;21.10;99.90
16158;DHT22;8184;60.256;18.694;2023-07-24T08:05:40;21.80;99.90
16158;DHT22;8184;60.256;18.694;2023-07-24T08:08:08;22.10;99.90
16158;DHT22;8184;60.256;18.694;2023-07-24T08:10:37;21.70;99.90
16158;DHT22;8184;60.256;18.694;2023-07-24T08:13:06;22.00;99.90
16158;DHT22;8184;60.256;18.694;2023-07-24T08:15:35;22.30;99.90
16158;DHT22;8184;60.256;18.694;2023-07-24T08:18:04;22.60;99.90
16158;DHT22;8184;60.256;18.694;2023-07-24T08:20:34;21.80;99.90
16158;DHT22;8184;60.256;18.694;2023-07-24T08:23:03;21.90;99.90
16158;DHT22;8184;60.256;18.694;2023-07-24T08:25:31;22.20;99.90
16158;DHT22;8184;60.256;18.694;2023-07-24T08:28:00;21.50;99.90
16158;DHT22;8184;60.256;18.694;2023-07-24T08:30:31;21.70;99.90
16158;DHT22;8184;60.256;18.694;2023-07-24T08:33:00;22.40;99.90
16158;DHT22;8184;60.256;18.694;2023-07-24T08:35:30;22.20;99.90
16158;DHT22;8184;60.256;18.694;2023-07-24T08:38:03;22.20;99.90
16158;DHT22;8184;60.256;18.694;2023-07-24T08:40:35;20.80;99.90
16158;DHT22;8184;60.256;18.694;2023-07-24T08:43:04;20.10;99.90
16158;DHT22;8184;60.256;18.694;2023-07-24T08:45:33;20.00;99.90
16158;DHT22;8184;60.256;18.694;2023-07-24T08:48:01;20.40;99.90
16158;DHT22;8184;60.256;18.694;2023-07-24T08:50:31;20.50;99.90
16158;DHT22;8184;60.256;18.694;2023-07-24T08:53:01;19.90;99.90
16158;DHT22;8184;60.256;18.694;2023-07-24T08:55:31;20.20;99.90
16158;DHT22;8184;60.256;18.694;2023-07-24T08:58:03;20.40;99.90
16158;DHT22;8184;60.256;18.694;2023-07-24T09:00:35;20.50;99.90
16158;DHT22;8184;60.256;18.694;2023-07-24T09:03:04;20.50;99.90
16158;DHT22;8184;60.256;18.694;2023-07-24T09:05:33;20.60;99.90
16158;DHT22;8184;60.256;18.694;2023-07-24T09:08:04;20.60;99.90
16158;DHT22;8184;60.256;18.694;2023-07-24T09:10:32;20.80;99.90
16158;DHT22;8184;60.256;18.694;2023-07-24T09:13:04;21.60;99.90
16158;DHT22;8184;60.256;18.694;2023-07-24T09:15:41;20.50;99.90
16158;DHT22;8184;60.256;18.694;2023-07-24T09:18:17;19.50;99.90
16158;DHT22;8184;60.256;18.694;2023-07-24T09:20:51;20.10;99.90
16158;DHT22;8184;60.256;18.694;2023-07-24T09:23:25;20.40;99.90
16158;DHT22;8184;60.256;18.694;2023-07-24T09:25:54;20.50;99.90
16158;DHT22;8184;60.256;18.694;2023-07-24T09:28:22;20.30;99.90
16158;DHT22;8184;60.256;18.694;2023-07-24T09:30:54;20.30;99.90
16158;DHT22;8184;60.256;18.694;2023-07-24T09:33:23;20.40;99.90
16158;DHT22;8184;60.256;18.694;2023-07-24T09:35:59;20.50;99.90
16158;DHT22;8184;60.256;18.694;2023-07-24T09:38:27;20.70;99.90
16158;DHT22;8184;60.256;18.694;2023-07-24T09:40:58;20.50;99.90
16158;DHT22;8184;60.256;18.694;2023-07-24T09:43:26;19.80;99.90
16158;DHT22;8184;60.256;18.694;2023-07-24T09:46:07;20.10;99.90
16158;DHT22;8184;60.256;18.694;2023-07-24T09:48:37;20.30;99.90
16158;DHT22;8184;60.256;18.694;2023-07-24T09:51:32;20.50;99.90
16158;DHT22;8184;60.256;18.694;2023-07-24T09:54:03;20.60;99.90
16158;DHT22;8184;60.256;18.694;2023-07-24T09:56:37;20.70;99.90
16158;DHT22;8184;60.256;18.694;2023-07-24T09:59:19;21.10;99.90
16158;DHT22;8184;60.256;18.694;2023-07-24T10:01:48;21.00;99.90
16158;DHT22;8184;60.256;18.694;2023-07-24T10:04:18;21.40;99.90
16158;DHT22;8184;60.256;18.694;2023-07-24T10:06:48;21.70;99.90
16158;DHT22;8184;60.256;18.694;2023-07-24T10:09:16;20.50;99.90
16158;DHT22;8184;60.256;18.694;2023-07-24T10:11:48;20.50;99.90
16158;DHT22;8184;60.256;18.694;2023-07-24T10:14:16;20.50;99.90
16158;DHT22;8184;60.256;18.694;2023-07-24T10:16:45;20.80;99.90
16158;DHT22;8184;60.256;18.694;2023-07-24T10:19:13;20.70;99.90
16158;DHT22;8184;60.256;18.694;2023-07-24T10:21:46;20.30;99.90
16158;DHT22;8184;60.256;18.694;2023-07-24T10:24:15;20.40;99.90
16158;DHT22;8184;60.256;18.694;2023-07-24T10:27:07;20.60;99.90
16158;DHT22;8184;60.256;18.694;2023-07-24T10:29:35;20.50;99.90
16158;DHT22;8184;60.256;18.694;2023-07-24T10:32:04;20.50;99.90
16158;DHT22;8184;60.256;18.694;2023-07-24T10:34:36;21.00;99.90
16158;DHT22;8184;60.256;18.694;2023-07-24T10:37:06;21.40;99.90
16158;DHT22;8184;60.256;18.694;2023-07-24T10:39:39;21.10;99.90
16158;DHT22;8184;60.256;18.694;2023-07-24T10:42:08;20.70;99.90
16158;DHT22;8184;60.256;18.694;2023-07-24T10:44:37;20.90;99.90
16158;DHT22;8184;60.256;18.694;2023-07-24T10:47:05;20.90;99.90
16158;DHT22;8184;60.256;18.694;2023-07-24T10:49:37;20.70;99.90
16158;DHT22;8184;60.256;18.694;2023-07-24T10:52:05;21.00;99.90
16158;DHT22;8184;60.256;18.694;2023-07-24T10:54:35;21.10;99.90
16158;DHT22;8184;60.256;18.694;2023-07-24T10:57:05;21.30;99.90
16158;DHT22;8184;60.256;18.694;2023-07-24T10:59:40;22.10;99.90
16158;DHT22;8184;60.256;18.694;2023-07-24T11:02:08;21.60;99.90
16158;DHT22;8184;60.256;18.694;2023-07-24T11:04:39;21.40;99.90
16158;DHT22;8184;60.256;18.694;2023-07-24T11:07:08;21.40;99.90
16158;DHT22;8184;60.256;18.694;2023-07-24T11:09:36;21.60;99.90
16158;DHT22;8184;60.256;18.694;2023-07-24T11:12:11;21.40;99.90
16158;DHT22;8184;60.256;18.694;2023-07-24T11:14:46;21.70;99.90
16158;DHT22;8184;60.256;18.694;2023-07-24T11:17:21;21.60;99.90
16158;DHT22;8184;60.256;18.694;2023-07-24T11:19:50;21.40;99.90
16158;DHT22;8184;60.256;18.694;2023-07-24T11:22:21;21.50;99.90
16158;DHT22;8184;60.256;18.694;2023-07-24T11:24:49;21.80;99.90
16158;DHT22;8184;60.256;18.694;2023-07-24T11:27:20;21.10;99.90
16158;DHT22;8184;60.256;18.694;2023-07-24T11:29:50;21.10;99.90
16158;DHT22;8184;60.256;18.694;2023-07-24T11:32:18;21.70;99.90
16158;DHT22;8184;60.256;18.694;2023-07-24T11:34:52;22.00;99.90
16158;DHT22;8184;60.256;18.694;2023-07-24T11:37:21;21.60;99.90
16158;DHT22;8184;60.256;18.694;2023-07-24T11:39:56;21.70;99.90
16158;DHT22;8184;60.256;18.694;2023-07-24T11:42:26;21.20;99.90
16158;DHT22;8184;60.256;18.694;2023-07-24T11:44:54;21.60;99.90
16158;DHT22;8184;60.256;18.694;2023-07-24T11:47:23;21.20;99.90
16158;DHT22;8184;60.256;18.694;2023-07-24T11:49:56;21.30;99.90
16158;DHT22;8184;60.256;18.694;2023-07-24T11:52:36;21.10;99.90
16158;DHT22;8184;60.256;18.694;2023-07-24T11:55:05;21.20;99.90
16158;DHT22;8184;60.256;18.694;2023-07-24T11:57:35;21.60;99.90
16158;DHT22;8184;60.256;18.694;2023-07-24T12:00:04;21.40;99.90
16158;DHT22;8184;60.256;18.694;2023-07-24T12:02:33;21.30;99.90
16158;DHT22;8184;60.256;18.694;2023-07-24T12:05:01;22.40;99.90
16158;DHT22;8184;60.256;18.694;2023-07-24T12:07:30;22.30;99.90
16158;DHT22;8184;60.256;18.694;2023-07-24T12:09:59;22.00;99.90
16158;DHT22;8184;60.256;18.694;2023-07-24T12:12:39;22.20;99.90
16158;DHT22;8184;60.256;18.694;2023-07-24T12:15:08;22.40;99.90
16158;DHT22;8184;60.256;18.694;2023-07-24T12:17:36;22.70;99.90
16158;DHT22;8184;60.256;18.694;2023-07-24T12:20:07;23.00;99.90
16158;DHT22;8184;60.256;18.694;2023-07-24T12:22:36;22.60;99.90
16158;DHT22;8184;60.256;18.694;2023-07-24T12:25:05;22.90;99.90
16158;DHT22;8184;60.256;18.694;2023-07-24T12:27:34;23.20;99.90
16158;DHT22;8184;60.256;18.694;2023-07-24T12:30:04;23.50;99.90
16158;DHT22;8184;60.256;18.694;2023-07-24T12:32:33;23.20;99.90
16158;DHT22;8184;60.256;18.694;2023-07-24T12:35:04;23.00;99.90
16158;DHT22;8184;60.256;18.694;2023-07-24T12:37:32;22.80;99.90
16158;DHT22;8184;60.256;18.694;2023-07-24T12:40:02;22.90;99.90
16158;DHT22;8184;60.256;18.694;2023-07-24T12:42:30;22.90;99.90
16158;DHT22;8184;60.256;18.694;2023-07-24T12:44:58;22.20;99.90
16158;DHT22;8184;60.256;18.694;2023-07-24T12:47:32;22.50;99.90
16158;DHT22;8184;60.256;18.694;2023-07-24T12:50:01;22.50;99.90
16158;DHT22;8184;60.256;18.694;2023-07-24T12:52:33;22.70;99.90
16158;DHT22;8184;60.256;18.694;2023-07-24T12:55:01;22.70;99.90
16158;DHT22;8184;60.256;18.694;2023-07-24T12:57:30;22.80;99.90
16158;DHT22;8184;60.256;18.694;2023-07-24T12:59:58;23.30;99.90
16158;DHT22;8184;60.256;18.694;2023-07-24T13:02:26;23.60;99.90
16158;DHT22;8184;60.256;18.694;2023-07-24T13:04:56;23.90;99.90
16158;DHT22;8184;60.256;18.694;2023-07-24T13:07:24;23.10;99.90
16158;DHT22;8184;60.256;18.694;2023-07-24T13:09:56;23.00;99.90
16158;DHT22;8184;60.256;18.694;2023-07-24T13:12:24;22.90;99.90
16158;DHT22;8184;60.256;18.694;2023-07-24T13:14:52;22.90;99.90
16158;DHT22;8184;60.256;18.694;2023-07-24T13:17:20;22.80;99.90
16158;DHT22;8184;60.256;18.694;2023-07-24T13:19:49;22.50;99.90
16158;DHT22;8184;60.256;18.694;2023-07-24T13:22:19;22.60;99.90
16158;DHT22;8184;60.256;18.694;2023-07-24T13:24:47;22.20;99.90
16158;DHT22;8184;60.256;18.694;2023-07-24T13:27:15;22.00;99.90
16158;DHT22;8184;60.256;18.694;2023-07-24T13:29:43;21.70;99.90
16158;DHT22;8184;60.256;18.694;2023-07-24T13:32:14;21.70;99.90
16158;DHT22;8184;60.256;18.694;2023-07-24T13:34:42;21.80;99.90
16158;DHT22;8184;60.256;18.694;2023-07-24T13:37:11;22.00;99.90
16158;DHT22;8184;60.256;18.694;2023-07-24T13:39:41;22.10;99.90
16158;DHT22;8184;60.256;18.694;2023-07-24T13:42:09;22.10;99.90
16158;DHT22;8184;60.256;18.694;2023-07-24T13:44:37;22.00;99.90
16158;DHT22;8184;60.256;18.694;2023-07-24T13:47:05;22.00;99.90
16158;DHT22;8184;60.256;18.694;2023-07-24T13:49:34;21.30;99.90
16158;DHT22;8184;60.256;18.694;2023-07-24T13:52:02;21.40;99.90
16158;DHT22;8184;60.256;18.694;2023-07-24T13:54:30;21.30;99.90
16158;DHT22;8184;60.256;18.694;2023-07-24T13:57:00;21.20;99.90
16158;DHT22;8184;60.256;18.694;2023-07-24T13:59:34;21.30;99.90
16158;DHT22;8184;60.256;18.694;2023-07-24T14:02:02;20.90;99.90
16158;DHT22;8184;60.256;18.694;2023-07-24T14:04:31;21.20;99.90
16158;DHT22;8184;60.256;18.694;2023-07-24T14:07:04;21.60;99.90
16158;DHT22;8184;60.256;18.694;2023-07-24T14:09:33;22.30;99.90
16158;DHT22;8184;60.256;18.694;2023-07-24T14:12:03;22.10;99.90
16158;DHT22;8184;60.256;18.694;2023-07-24T14:14:31;22.10;99.90
16158;DHT22;8184;60.256;18.694;2023-07-24T14:17:00;21.60;99.90
16158;DHT22;8184;60.256;18.694;2023-07-24T14:19:28;21.70;99.90
16158;DHT22;8184;60.256;18.694;2023-07-24T14:21:56;22.10;99.90
16158;DHT22;8184;60.256;18.694;2023-07-24T14:24:28;22.00;99.90
16158;DHT22;8184;60.256;18.694;2023-07-24T14:26:58;21.60;99.90
16158;DHT22;8184;60.256;18.694;2023-07-24T14:29:29;21.10;99.90
16158;DHT22;8184;60.256;18.694;2023-07-24T14:31:57;21.30;99.90
16158;DHT22;8184;60.256;18.694;2023-07-24T14:34:25;21.30;99.90
16158;DHT22;8184;60.256;18.694;2023-07-24T14:36:55;21.80;99.90
16158;DHT22;8184;60.256;18.694;2023-07-24T14:39:23;21.60;99.90
16158;DHT22;8184;60.256;18.694;2023-07-24T14:41:51;21.60;99.90
16158;DHT22;8184;60.256;18.694;2023-07-24T14:44:23;21.60;99.90
16158;DHT22;8184;60.256;18.694;2023-07-24T14:46:53;21.30;99.90
16158;DHT22;8184;60.256;18.694;2023-07-24T14:49:21;21.20;99.90
16158;DHT22;8184;60.256;18.694;2023-07-24T14:51:51;20.90;99.90
16158;DHT22;8184;60.256;18.694;2023-07-24T14:54:20;21.20;99.90
16158;DHT22;8184;60.256;18.694;2023-07-24T14:56:51;21.20;99.90
16158;DHT22;8184;60.256;18.694;2023-07-24T14:59:33;21.30;99.90
16158;DHT22;8184;60.256;18.694;2023-07-24T15:02:05;21.20;99.90
16158;DHT22;8184;60.256;18.694;2023-07-24T15:04:34;21.10;99.90
16158;DHT22;8184;60.256;18.694;2023-07-24T15:07:02;21.20;99.90
16158;DHT22;8184;60.256;18.694;2023-07-24T15:09:31;21.30;99.90
16158;DHT22;8184;60.256;18.694;2023-07-24T15:11:59;21.10;99.90
16158;DHT22;8184;60.256;18.694;2023-07-24T15:14:37;21.00;99.90
16158;DHT22;8184;60.256;18.694;2023-07-24T15:17:06;21.40;99.90
16158;DHT22;8184;60.256;18.694;2023-07-24T15:19:34;21.30;99.90
16158;DHT22;8184;60.256;18.694;2023-07-24T15:22:03;21.20;99.90
16158;DHT22;8184;60.256;18.694;2023-07-24T15:24:33;21.10;99.90
16158;DHT22;8184;60.256;18.694;2023-07-24T15:27:02;21.30;99.90
16158;DHT22;8184;60.256;18.694;2023-07-24T15:29:35;21.40;99.90
16158;DHT22;8184;60.256;18.694;2023-07-24T15:32:04;21.20;99.90
16158;DHT22;8184;60.256;18.694;2023-07-24T15:34:34;21.00;99.90
16158;DHT22;8184;60.256;18.694;2023-07-24T15:37:05;21.10;99.90
16158;DHT22;8184;60.256;18.694;2023-07-24T15:39:33;21.00;99.90
16158;DHT22;8184;60.256;18.694;2023-07-24T15:42:02;21.30;99.90
16158;DHT22;8184;60.256;18.694;2023-07-24T15:44:30;21.10;99.90